Time;durP1;ratioP1;P1;durP2;ratioP2;P2;SDS_P1;SDS_P2;PMS_P1;PMS_P2;Temp;Humidity;BMP_temperature;BMP_pressure;BME280_temperature;BME280_humidity;BME280_pressure;Samples;Min_cycle;Max_cycle;Signal;HPM_P1;HPM_P2
2023/09/12 00:03:46;;;;;;;;;;;;;;;18.76;100.00;99891.16;180049;1264;43651;-60
2023/09/12 00:08:03;;;;;;;;;;;;;;;18.61;100.00;99888.38;180078;1262;45724;-60
2023/09/12 00:12:08;;;;;;;;;;;;;;;18.49;100.00;99885.17;180106;1262;58230;-60
2023/09/12 00:16:11;;;;;;;;;;;;;;;18.47;100.00;99886.67;180022;1262;44384;-60
2023/09/12 00:20:44;;;;;;;;;;;;;;;18.52;100.00;99888.19;180182;1262;45633;-60
2023/09/12 00:25:19;;;;;;;;;;;;;;;18.55;100.00;99885.41;180154;1262;44687;-60
2023/09/12 00:29:22;;;;;;;;;;;;;;;18.60;100.00;99880.83;180157;1262;43420;-60
2023/09/12 00:33:25;;;;;;;;;;;;;;;18.66;100.00;99881.56;180189;1262;57574;-60
2023/09/12 00:37:28;;;;;;;;;;;;;;;18.77;100.00;99878.17;180219;1262;45725;-60
2023/09/12 00:41:31;;;;;;;;;;;;;;;18.79;100.00;99878.85;180201;1262;44711;-60
2023/09/12 00:45:34;;;;;;;;;;;;;;;18.73;100.00;99878.02;180178;1262;45231;-60
2023/09/12 00:49:40;;;;;;;;;;;;;;;18.73;100.00;99878.41;180154;1262;43433;-61
2023/09/12 00:53:43;;;;;;;;;;;;;;;18.69;100.00;99878.48;180148;1262;59178;-60
2023/09/12 00:57:48;;;;;;;;;;;;;;;18.64;100.00;99873.33;180020;1262;45747;-61
2023/09/12 01:01:51;;;;;;;;;;;;;;;18.57;100.00;99877.19;180144;1262;43493;-60
2023/09/12 01:05:55;;;;;;;;;;;;;;;18.50;100.00;99880.46;180158;1262;44709;-61
2023/09/12 01:09:59;;;;;;;;;;;;;;;18.46;100.00;99877.56;180299;1262;43286;-60
2023/09/12 01:14:03;;;;;;;;;;;;;;;18.40;100.00;99878.41;180233;1262;58256;-60
2023/09/12 01:18:06;;;;;;;;;;;;;;;18.30;100.00;99877.43;180180;1262;43401;-60
2023/09/12 01:22:17;;;;;;;;;;;;;;;18.23;100.00;99876.26;180216;1262;43431;-60
2023/09/12 01:26:40;;;;;;;;;;;;;;;18.19;100.00;99874.53;180197;1262;44770;-60
2023/09/12 01:30:45;;;;;;;;;;;;;;;18.16;100.00;99876.81;180074;1263;44810;-60
2023/09/12 01:35:21;;;;;;;;;;;;;;;18.13;100.00;99880.95;180181;1262;58362;-60
2023/09/12 01:39:25;;;;;;;;;;;;;;;18.07;100.00;99882.35;180362;1262;43776;-60
2023/09/12 01:43:31;;;;;;;;;;;;;;;18.04;100.00;99885.27;180221;1262;43476;-60
2023/09/12 02:04:08;;;;;;;;;;;;;;;17.96;100.00;99881.69;176491;1285;578749;-60
2023/09/12 02:08:12;;;;;;;;;;;;;;;17.79;100.00;99884.00;179206;1263;724318;-59
2023/09/12 02:12:15;;;;;;;;;;;;;;;17.68;100.00;99881.92;179989;1263;43768;-60
2023/09/12 02:16:19;;;;;;;;;;;;;;;17.58;100.00;99880.19;180113;1263;45554;-59
2023/09/12 02:20:22;;;;;;;;;;;;;;;17.50;100.00;99886.45;179996;1263;44705;-60
2023/09/12 02:24:25;;;;;;;;;;;;;;;17.55;100.00;99879.10;180109;1263;44651;-60
2023/09/12 02:28:28;;;;;;;;;;;;;;;17.64;100.00;99882.17;180078;1264;57735;-60
2023/09/12 02:32:58;;;;;;;;;;;;;;;17.68;100.00;99882.09;180860;1256;45842;-59
2023/09/12 02:37:01;;;;;;;;;;;;;;;17.74;100.00;99882.77;180900;1255;43518;-60
2023/09/12 02:41:18;;;;;;;;;;;;;;;17.70;100.00;99883.08;180715;1256;45647;-60
2023/09/12 02:45:21;;;;;;;;;;;;;;;17.66;100.00;99890.40;180690;1256;44442;-60
2023/09/12 02:49:25;;;;;;;;;;;;;;;17.63;100.00;99887.74;180704;1256;59421;-60
2023/09/12 02:53:29;;;;;;;;;;;;;;;17.64;100.00;99889.91;180831;1256;43402;-60
2023/09/12 02:57:32;;;;;;;;;;;;;;;17.65;100.00;99889.61;180771;1255;43363;-60
2023/09/12 03:01:35;;;;;;;;;;;;;;;17.71;100.00;99892.81;180883;1254;45785;-60
2023/09/12 03:05:39;;;;;;;;;;;;;;;17.72;100.00;99893.11;180883;1256;44649;-63
2023/09/12 03:09:42;;;;;;;;;;;;;;;17.69;100.00;99893.98;180949;1254;59009;-60
2023/09/12 03:18:34;;;;;;;;;;;;;;;17.63;100.00;99895.27;180975;1256;44269;-57
2023/09/12 03:23:03;;;;;;;;;;;;;;;17.58;100.00;99889.40;181024;1256;43491;-58
2023/09/12 03:27:08;;;;;;;;;;;;;;;17.51;100.00;99891.54;180737;1256;44427;-57
2023/09/12 03:31:14;;;;;;;;;;;;;;;17.46;100.00;99895.11;180863;1256;58487;-57
2023/09/12 03:35:17;;;;;;;;;;;;;;;17.41;100.00;99890.48;180814;1256;44397;-58
2023/09/12 03:44:10;;;;;;;;;;;;;;;17.42;100.00;99889.27;180928;1256;45404;-58
2023/09/12 03:48:19;;;;;;;;;;;;;;;17.44;100.00;99888.14;180963;1255;45651;-58
2023/09/12 03:52:22;;;;;;;;;;;;;;;17.48;100.00;99891.23;180805;1256;59683;-58
2023/09/12 03:56:26;;;;;;;;;;;;;;;17.50;100.00;99889.34;180897;1255;44495;-58
2023/09/12 04:00:29;;;;;;;;;;;;;;;17.53;100.00;99889.91;181009;1256;43317;-58
2023/09/12 04:04:32;;;;;;;;;;;;;;;17.53;100.00;99891.66;181064;1256;43277;-58
2023/09/12 04:08:35;;;;;;;;;;;;;;;17.52;100.00;99887.66;181021;1255;48596;-58
2023/09/12 04:13:10;;;;;;;;;;;;;;;17.52;100.00;99892.34;180926;1256;57783;-58
2023/09/12 04:17:13;;;;;;;;;;;;;;;17.54;100.00;99893.53;180767;1256;43338;-58
2023/09/12 04:26:05;;;;;;;;;;;;;;;17.55;100.00;99898.30;180723;1256;43470;-59
2023/09/12 04:30:09;;;;;;;;;;;;;;;17.53;100.00;99899.84;180858;1256;45784;-58
2023/09/12 04:34:12;;;;;;;;;;;;;;;17.48;100.00;99898.56;180869;1256;58247;-58
2023/09/12 04:38:22;;;;;;;;;;;;;;;17.41;100.00;99901.00;180871;1255;44524;-58
2023/09/12 04:42:30;;;;;;;;;;;;;;;17.41;100.00;99896.88;181005;1255;43443;-58
2023/09/12 04:47:14;;;;;;;;;;;;;;;17.42;100.00;99897.84;180875;1255;45655;-59
2023/09/12 04:51:17;;;;;;;;;;;;;;;17.50;100.00;99895.65;180852;1256;43593;-57
2023/09/12 04:55:28;;;;;;;;;;;;;;;17.70;100.00;99893.70;180836;1255;58754;-58
2023/09/12 04:59:31;;;;;;;;;;;;;;;18.07;100.00;99892.61;180982;1256;43576;-58
2023/09/12 05:03:35;;;;;;;;;;;;;;;18.48;100.00;99891.61;180883;1256;44759;-59
2023/09/12 05:07:39;;;;;;;;;;;;;;;18.87;100.00;99894.04;180936;1256;46475;-58
2023/09/12 05:11:51;;;;;;;;;;;;;;;19.20;100.00;99904.02;181057;1255;44437;-58
2023/09/12 05:15:55;;;;;;;;;;;;;;;19.67;100.00;99909.46;181068;1256;59170;-58
2023/09/12 05:20:10;;;;;;;;;;;;;;;20.06;100.00;99906.84;181015;1254;43809;-59
2023/09/12 05:24:14;;;;;;;;;;;;;;;20.42;100.00;99908.83;181062;1256;45762;-59
2023/09/12 05:28:17;;;;;;;;;;;;;;;20.78;100.00;99908.59;180933;1255;43306;-59
2023/09/12 05:32:20;;;;;;;;;;;;;;;21.13;100.00;99908.41;180974;1256;43694;-58
2023/09/12 05:36:24;;;;;;;;;;;;;;;21.57;100.00;99903.84;179837;1259;86099;-87
2023/09/12 05:40:28;;;;;;;;;;;;;;;22.02;99.51;99905.88;179220;1260;45835;-86
2023/09/12 05:44:31;;;;;;;;;;;;;;;22.37;98.35;99906.97;179154;1257;45769;-87
2023/09/12 05:48:34;;;;;;;;;;;;;;;22.90;96.41;99903.77;179262;1260;45781;-86
2023/09/12 05:52:38;;;;;;;;;;;;;;;23.42;92.62;99903.52;179482;1258;43923;-87
2023/09/12 05:57:05;;;;;;;;;;;;;;;23.73;86.72;99901.34;179462;1260;59627;-87
2023/09/12 06:01:20;;;;;;;;;;;;;;;23.77;86.24;99896.67;179622;1259;43884;-87
2023/09/12 06:05:30;;;;;;;;;;;;;;;23.88;84.97;99900.33;179936;1258;44307;-87
2023/09/12 06:09:53;;;;;;;;;;;;;;;23.94;85.98;99901.33;179807;1259;45752;-87
2023/09/12 06:14:16;;;;;;;;;;;;;;;24.17;85.53;99897.56;179892;1258;45741;-87
2023/09/12 06:18:24;;;;;;;;;;;;;;;24.24;84.93;99896.08;179984;1257;57830;-86
2023/09/12 06:22:34;;;;;;;;;;;;;;;24.40;84.82;99897.40;178809;1260;45882;-86
2023/09/12 06:26:54;;;;;;;;;;;;;;;24.47;84.14;99892.34;179820;1257;44702;-91
2023/09/12 06:31:11;;;;;;;;;;;;;;;24.50;84.08;99888.77;180107;1259;44545;-92
2023/09/12 06:35:16;;;;;;;;;;;;;;;24.70;83.89;99889.72;179674;1259;44030;-92
2023/09/12 06:39:21;;;;;;;;;;;;;;;24.94;82.36;99892.48;180114;1257;60329;-92
2023/09/12 06:43:28;;;;;;;;;;;;;;;24.97;81.69;99890.25;180138;1258;45729;-91
2023/09/12 06:47:36;;;;;;;;;;;;;;;25.01;81.27;99891.33;180008;1257;47279;-91
2023/09/12 06:51:41;;;;;;;;;;;;;;;25.10;81.06;99893.76;179862;1257;48313;-91
2023/09/12 06:55:44;;;;;;;;;;;;;;;25.31;81.00;99891.01;179219;1257;45799;-91
2023/09/12 06:59:50;;;;;;;;;;;;;;;25.48;80.10;99891.94;179844;1257;58075;-91
2023/09/12 07:03:55;;;;;;;;;;;;;;;25.68;80.34;99890.24;179971;1257;43944;-91
2023/09/12 07:08:00;;;;;;;;;;;;;;;25.82;79.50;99888.19;179807;1257;45772;-92
2023/09/12 07:12:05;;;;;;;;;;;;;;;25.88;79.05;99888.64;180067;1256;45756;-92
2023/09/12 07:16:32;;;;;;;;;;;;;;;25.98;79.09;99883.25;180619;1254;45120;-92
2023/09/12 07:25:23;;;;;;;;;;;;;;;26.13;77.70;99895.42;180254;1261;45786;-91
2023/09/12 07:34:11;;;;;;;;;;;;;;;26.31;77.83;99893.00;180914;1259;80964;-58
2023/09/12 08:02:41;;;;;;;;;;;;;;;26.96;77.71;99891.84;180554;1259;45682;-59
2023/09/12 08:06:44;;;;;;;;;;;;;;;27.14;76.81;99891.83;180468;1259;57639;-59
2023/09/12 08:11:01;;;;;;;;;;;;;;;27.34;76.90;99895.84;180341;1259;44166;-59
2023/09/12 08:15:06;;;;;;;;;;;;;;;27.37;76.69;99898.07;180466;1259;43392;-59
2023/09/12 08:19:09;;;;;;;;;;;;;;;27.51;76.50;99897.98;180392;1259;44562;-59
2023/09/12 08:23:17;;;;;;;;;;;;;;;27.80;74.89;99894.61;180651;1259;44440;-60
2023/09/12 08:27:20;;;;;;;;;;;;;;;28.08;75.34;99894.59;180357;1260;59155;-59
2023/09/12 08:31:27;;;;;;;;;;;;;;;28.30;72.53;99899.77;180367;1260;43356;-59
2023/09/12 08:35:31;;;;;;;;;;;;;;;28.37;72.78;99896.14;180457;1260;45708;-59
2023/09/12 08:39:45;;;;;;;;;;;;;;;28.38;71.37;99897.40;180371;1263;44943;-59
2023/09/12 08:43:48;;;;;;;;;;;;;;;28.20;72.31;99898.32;180443;1259;43396;-59
2023/09/12 08:47:56;;;;;;;;;;;;;;;28.21;74.02;99902.48;180382;1263;58181;-59
2023/09/12 09:05:34;;;;;;;;;;;;;;;28.51;75.90;99901.40;180307;1260;44476;-92
2023/09/12 09:09:55;;;;;;;;;;;;;;;28.71;76.95;99901.73;180522;1260;57166;-92
2023/09/12 09:19:00;;;;;;;;;;;;;;;29.19;75.17;99886.80;171160;1260;43553;-58
2023/09/12 09:23:10;;;;;;;;;;;;;;;29.36;73.89;99886.35;180408;1262;43586;-59
2023/09/12 09:27:34;;;;;;;;;;;;;;;29.54;74.89;99884.72;180512;1261;43571;-59
2023/09/12 09:31:45;;;;;;;;;;;;;;;29.63;72.64;99884.78;180455;1262;58231;-59
2023/09/12 09:35:49;;;;;;;;;;;;;;;29.77;72.87;99875.95;180473;1261;45814;-59
2023/09/12 09:39:52;;;;;;;;;;;;;;;29.91;72.61;99877.46;180381;1263;43549;-59
2023/09/12 09:43:56;;;;;;;;;;;;;;;30.07;70.35;99873.39;180511;1262;45722;-58
2023/09/12 09:48:08;;;;;;;;;;;;;;;30.26;66.70;99873.38;180175;1263;87092;-90
2023/09/12 09:52:13;;;;;;;;;;;;;;;30.38;61.83;99870.59;179784;1263;57763;-89
2023/09/12 09:56:17;;;;;;;;;;;;;;;30.51;61.48;99868.05;179659;1261;45894;-88
2023/09/12 10:00:23;;;;;;;;;;;;;;;30.65;59.59;99868.65;179791;1262;44640;-89
2023/09/12 10:04:28;;;;;;;;;;;;;;;30.82;61.41;99872.92;179693;1260;47076;-89
2023/09/12 10:08:34;;;;;;;;;;;;;;;30.98;59.41;99870.80;179956;1263;45147;-88
2023/09/12 10:12:42;;;;;;;;;;;;;;;31.13;61.24;99868.85;179303;1263;58156;-89
2023/09/12 10:16:49;;;;;;;;;;;;;;;31.28;60.85;99863.88;179493;1260;45708;-89
2023/09/12 10:20:55;;;;;;;;;;;;;;;31.36;57.66;99861.14;179554;1265;45672;-89
2023/09/12 10:25:02;;;;;;;;;;;;;;;31.35;57.55;99857.72;179375;1263;45116;-90
2023/09/12 10:29:07;;;;;;;;;;;;;;;31.38;55.59;99853.44;179670;1260;45655;-90
2023/09/12 10:33:12;;;;;;;;;;;;;;;31.44;56.09;99850.90;179995;1259;59403;-89
2023/09/12 10:37:20;;;;;;;;;;;;;;;31.57;58.28;99848.14;179766;1263;45745;-89
2023/09/12 10:41:25;;;;;;;;;;;;;;;31.65;54.47;99845.21;179768;1262;44424;-89
2023/09/12 10:45:31;;;;;;;;;;;;;;;31.68;53.40;99845.71;179490;1261;45820;-90
2023/09/12 10:49:37;;;;;;;;;;;;;;;31.77;52.28;99838.83;179783;1260;44374;-89
2023/09/12 10:53:50;;;;;;;;;;;;;;;31.87;53.28;99840.73;179835;1260;60438;-89
2023/09/12 10:58:04;;;;;;;;;;;;;;;31.83;55.35;99842.23;179862;1259;45919;-90
2023/09/12 11:02:27;;;;;;;;;;;;;;;31.87;53.89;99844.15;179723;1261;46264;-89
2023/09/12 11:06:37;;;;;;;;;;;;;;;31.87;53.06;99833.87;179814;1262;45948;-90
2023/09/12 11:10:41;;;;;;;;;;;;;;;31.98;52.50;99840.48;179800;1261;45891;-91
2023/09/12 11:15:05;;;;;;;;;;;;;;;32.02;53.44;99836.79;179855;1261;59586;-88
2023/09/12 11:19:16;;;;;;;;;;;;;;;32.04;53.72;99834.63;179751;1262;44543;-88
2023/09/12 11:23:20;;;;;;;;;;;;;;;32.10;54.75;99835.72;179672;1261;45708;-90
2023/09/12 11:27:31;;;;;;;;;;;;;;;32.07;53.67;99834.78;180074;1259;43883;-90
2023/09/12 11:31:37;;;;;;;;;;;;;;;32.16;53.67;99834.48;179735;1260;44754;-90
2023/09/12 11:35:43;;;;;;;;;;;;;;;32.21;54.44;99836.42;180046;1263;58422;-90
2023/09/12 11:39:47;;;;;;;;;;;;;;;32.23;53.65;99832.40;180014;1258;43880;-89
2023/09/12 11:43:52;;;;;;;;;;;;;;;32.26;52.60;99829.53;179813;1257;45699;-90
2023/09/12 11:47:56;;;;;;;;;;;;;;;32.21;51.42;99825.48;180067;1261;49585;-90
2023/09/12 11:52:06;;;;;;;;;;;;;;;32.21;51.10;99827.57;179831;1257;45875;-89
2023/09/12 11:56:10;;;;;;;;;;;;;;;32.22;51.07;99824.49;179728;1260;60094;-91
2023/09/12 12:00:14;;;;;;;;;;;;;;;32.24;51.28;99826.19;179941;1260;45698;-88
2023/09/12 12:04:22;;;;;;;;;;;;;;;32.36;52.13;99827.14;179736;1259;45801;-89
2023/09/12 12:08:27;;;;;;;;;;;;;;;32.40;53.26;99834.16;179923;1260;45881;-90
2023/09/12 12:12:35;;;;;;;;;;;;;;;32.41;52.56;99831.20;179784;1260;45712;-89
2023/09/12 12:16:40;;;;;;;;;;;;;;;32.44;50.31;99829.69;179895;1259;60048;-89
2023/09/12 12:20:44;;;;;;;;;;;;;;;32.49;52.25;99827.08;179625;1260;44744;-89
2023/09/12 12:24:51;;;;;;;;;;;;;;;32.44;50.53;99831.27;179950;1259;45849;-90
2023/09/12 12:28:55;;;;;;;;;;;;;;;32.39;48.47;99829.88;179739;1260;43725;-90
2023/09/12 12:33:01;;;;;;;;;;;;;;;32.41;48.58;99824.19;179770;1262;45855;-90
2023/09/12 12:37:11;;;;;;;;;;;;;;;32.46;49.36;99822.58;179861;1257;59382;-90
2023/09/12 12:41:18;;;;;;;;;;;;;;;32.44;49.08;99819.83;179878;1260;45677;-88
2023/09/12 12:45:23;;;;;;;;;;;;;;;32.28;49.74;99819.84;180163;1257;45837;-89
2023/09/12 12:49:28;;;;;;;;;;;;;;;32.37;49.09;99813.48;179936;1260;44661;-89
2023/09/12 12:53:37;;;;;;;;;;;;;;;32.48;48.65;99804.73;179870;1260;43280;-92
2023/09/12 12:57:54;;;;;;;;;;;;;;;32.57;49.47;99800.83;180026;1259;57900;-89
2023/09/12 13:02:00;;;;;;;;;;;;;;;32.67;49.62;99794.15;180194;1259;45680;-90
2023/09/12 13:06:14;;;;;;;;;;;;;;;32.66;49.13;99792.41;180214;1261;46360;-89
2023/09/12 13:10:19;;;;;;;;;;;;;;;32.64;49.81;99789.16;180353;1259;45890;-88
2023/09/12 13:14:30;;;;;;;;;;;;;;;32.65;52.78;99790.86;180071;1259;45830;-88
2023/09/12 13:18:35;;;;;;;;;;;;;;;32.60;49.75;99790.17;179680;1257;58258;-88
2023/09/12 13:22:39;;;;;;;;;;;;;;;32.52;49.03;99785.83;179909;1259;45839;-87
2023/09/12 13:26:43;;;;;;;;;;;;;;;32.58;49.00;99782.65;179946;1259;43486;-88
2023/09/12 13:30:47;;;;;;;;;;;;;;;32.64;50.09;99779.41;180245;1260;43831;-88
2023/09/12 13:34:52;;;;;;;;;;;;;;;32.61;48.76;99782.85;180175;1260;44461;-88
2023/09/12 13:38:56;;;;;;;;;;;;;;;32.54;50.12;99782.08;179974;1260;60048;-87
2023/09/12 13:43:00;;;;;;;;;;;;;;;32.52;51.12;99777.79;180092;1262;45880;-87
2023/09/12 13:47:05;;;;;;;;;;;;;;;32.57;51.65;99775.71;180029;1259;43132;-87
2023/09/12 13:51:12;;;;;;;;;;;;;;;32.51;50.58;99772.12;179997;1259;45663;-88
2023/09/12 13:55:18;;;;;;;;;;;;;;;32.43;50.04;99771.19;180339;1259;44510;-87
2023/09/12 14:14:25;;;;;;;;;;;;;;;32.30;50.92;99782.30;180135;1263;43406;-60
2023/09/12 14:18:29;;;;;;;;;;;;;;;32.27;51.02;99783.41;180235;1260;44768;-61
2023/09/12 14:22:32;;;;;;;;;;;;;;;32.20;50.95;99782.96;180253;1260;45735;-61
2023/09/12 14:26:37;;;;;;;;;;;;;;;32.10;51.05;99784.66;180150;1260;43337;-60
2023/09/12 14:35:31;;;;;;;;;;;;;;;31.95;50.96;99779.28;180271;1260;43990;-60
2023/09/12 14:39:34;;;;;;;;;;;;;;;31.91;51.19;99780.89;179946;1260;44989;-60
2023/09/12 14:43:37;;;;;;;;;;;;;;;31.87;51.26;99779.92;179927;1260;44781;-60
2023/09/12 14:52:56;;;;;;;;;;;;;;;31.85;51.86;99774.77;180111;1260;57594;-60
2023/09/12 14:56:59;;;;;;;;;;;;;;;31.82;51.57;99778.73;180141;1260;43353;-60
2023/09/12 15:01:30;;;;;;;;;;;;;;;31.83;52.05;99780.42;180254;1260;43753;-60
2023/09/12 15:05:36;;;;;;;;;;;;;;;31.87;51.98;99780.70;180112;1258;84795;-88
2023/09/12 15:09:39;;;;;;;;;;;;;;;31.89;51.79;99782.07;179660;1261;43891;-87
2023/09/12 15:13:42;;;;;;;;;;;;;;;31.83;52.73;99781.48;179675;1264;57784;-87
2023/09/12 15:17:46;;;;;;;;;;;;;;;31.80;52.08;99777.13;179552;1263;43641;-88
2023/09/12 15:21:50;;;;;;;;;;;;;;;31.82;52.09;99775.59;179324;1264;44024;-88
2023/09/12 15:25:54;;;;;;;;;;;;;;;31.71;51.77;99773.23;179463;1264;43426;-87
2023/09/12 15:29:58;;;;;;;;;;;;;;;31.58;52.06;99770.09;179576;1263;43603;-87
2023/09/12 15:34:02;;;;;;;;;;;;;;;31.49;52.54;99774.02;179267;1263;57834;-88
2023/09/12 15:38:06;;;;;;;;;;;;;;;31.39;52.72;99768.38;179558;1263;45804;-88
2023/09/12 15:42:14;;;;;;;;;;;;;;;31.34;52.97;99768.16;179350;1264;44691;-88
2023/09/12 15:46:40;;;;;;;;;;;;;;;31.25;52.97;99766.31;179031;1260;45918;-87
2023/09/12 15:50:44;;;;;;;;;;;;;;;31.19;53.27;99764.65;179448;1261;45968;-88
2023/09/12 15:54:48;;;;;;;;;;;;;;;31.07;53.43;99763.01;179398;1264;58169;-87
2023/09/12 15:58:52;;;;;;;;;;;;;;;30.94;54.34;99758.95;179681;1262;45846;-88
2023/09/12 16:02:56;;;;;;;;;;;;;;;30.81;54.62;99759.55;179643;1264;45709;-88
2023/09/12 16:07:00;;;;;;;;;;;;;;;30.66;55.14;99756.86;179607;1261;44392;-88
2023/09/12 16:11:03;;;;;;;;;;;;;;;30.50;56.00;99754.23;179299;1260;43827;-88
2023/09/12 16:15:07;;;;;;;;;;;;;;;30.36;56.94;99756.17;179300;1262;57070;-88
2023/09/12 16:19:11;;;;;;;;;;;;;;;30.23;57.46;99757.08;179145;1262;45866;-88
2023/09/12 16:23:15;;;;;;;;;;;;;;;30.11;58.24;99749.64;179177;1262;45816;-88
2023/09/12 16:27:22;;;;;;;;;;;;;;;30.00;59.03;99749.60;179190;1262;45923;-88
2023/09/12 16:31:26;;;;;;;;;;;;;;;29.90;59.61;99751.85;179131;1263;45790;-88
2023/09/12 16:35:30;;;;;;;;;;;;;;;29.77;60.15;99751.90;179273;1261;57952;-88
2023/09/12 16:39:35;;;;;;;;;;;;;;;29.65;60.72;99757.42;179410;1262;45769;-87
2023/09/12 16:43:40;;;;;;;;;;;;;;;29.50;61.59;99751.92;179612;1261;44338;-88
2023/09/12 16:47:44;;;;;;;;;;;;;;;29.35;62.21;99753.02;179392;1262;45915;-88
2023/09/12 16:51:47;;;;;;;;;;;;;;;29.19;62.77;99755.55;179371;1263;45914;-87
2023/09/12 16:55:51;;;;;;;;;;;;;;;28.99;63.57;99753.59;179324;1262;59032;-87
2023/09/12 16:59:54;;;;;;;;;;;;;;;28.82;64.45;99753.89;179084;1263;44156;-88
2023/09/12 17:04:00;;;;;;;;;;;;;;;28.65;65.26;99752.35;178983;1263;45943;-88
2023/09/12 17:08:04;;;;;;;;;;;;;;;28.49;66.30;99755.57;178864;1263;45841;-88
2023/09/12 17:12:07;;;;;;;;;;;;;;;28.33;66.77;99759.69;178998;1262;45879;-88
2023/09/12 17:16:11;;;;;;;;;;;;;;;28.16;67.27;99764.58;178883;1262;60835;-88
2023/09/12 17:20:16;;;;;;;;;;;;;;;28.00;67.83;99768.85;179129;1261;44502;-88
2023/09/12 17:24:19;;;;;;;;;;;;;;;27.83;68.15;99775.09;179193;1262;45917;-88
2023/09/12 17:28:23;;;;;;;;;;;;;;;27.64;69.69;99777.04;178922;1261;45876;-88
2023/09/12 17:32:28;;;;;;;;;;;;;;;27.44;70.65;99783.77;178892;1262;45731;-87
2023/09/12 17:36:31;;;;;;;;;;;;;;;27.21;72.54;99785.70;178786;1262;59288;-88
2023/09/12 17:40:36;;;;;;;;;;;;;;;26.90;74.22;99780.89;178837;1262;45804;-88
2023/09/12 17:44:40;;;;;;;;;;;;;;;26.66;75.80;99780.94;178648;1262;45918;-87
2023/09/12 17:48:43;;;;;;;;;;;;;;;26.40;75.69;99779.11;179059;1262;45819;-88
2023/09/12 17:52:47;;;;;;;;;;;;;;;26.19;76.86;99781.48;178643;1262;45824;-88
2023/09/12 17:56:50;;;;;;;;;;;;;;;26.01;77.45;99785.61;178816;1261;58835;-87
2023/09/12 18:00:55;;;;;;;;;;;;;;;25.86;77.36;99788.45;178706;1260;45701;-87
2023/09/12 18:04:59;;;;;;;;;;;;;;;25.71;77.72;99799.18;178888;1261;44402;-88
2023/09/12 18:09:03;;;;;;;;;;;;;;;25.56;79.13;99802.67;178747;1260;45852;-87
2023/09/12 18:13:06;;;;;;;;;;;;;;;25.38;79.27;99806.14;178678;1262;45888;-88
2023/09/12 18:17:11;;;;;;;;;;;;;;;25.22;80.08;99809.05;178480;1261;59110;-87
2023/09/12 18:21:14;;;;;;;;;;;;;;;25.07;80.60;99809.16;178724;1262;46011;-87
2023/09/12 18:25:18;;;;;;;;;;;;;;;24.93;82.36;99808.75;178671;1262;47169;-87
2023/09/12 18:29:22;;;;;;;;;;;;;;;24.77;83.43;99806.70;178691;1262;45828;-87
2023/09/12 18:33:25;;;;;;;;;;;;;;;24.65;84.02;99812.42;178671;1260;45695;-88
2023/09/12 18:37:29;;;;;;;;;;;;;;;24.54;84.95;99813.58;178562;1262;58081;-87
2023/09/12 18:41:34;;;;;;;;;;;;;;;24.42;85.90;99815.28;178908;1261;45811;-87
2023/09/12 18:45:37;;;;;;;;;;;;;;;24.31;86.58;99815.13;178901;1262;46407;-87
2023/09/12 18:49:41;;;;;;;;;;;;;;;24.21;87.11;99821.74;178635;1262;45760;-86
2023/09/12 18:53:44;;;;;;;;;;;;;;;24.13;86.62;99820.20;178782;1260;44551;-86
2023/09/12 18:57:48;;;;;;;;;;;;;;;24.03;85.51;99824.27;178704;1260;58393;-87
2023/09/12 19:01:51;;;;;;;;;;;;;;;23.88;84.74;99825.55;178766;1261;45894;-87
2023/09/12 19:05:56;;;;;;;;;;;;;;;23.68;85.24;99821.56;178354;1264;45920;-87
2023/09/12 19:10:00;;;;;;;;;;;;;;;23.40;87.63;99823.08;178114;1262;45940;-87
2023/09/12 19:14:03;;;;;;;;;;;;;;;23.15;89.63;99823.09;178245;1263;45797;-87
2023/09/12 19:18:07;;;;;;;;;;;;;;;22.95;90.83;99825.17;178042;1260;60178;-87
2023/09/12 19:22:10;;;;;;;;;;;;;;;22.76;91.83;99823.19;178655;1260;46028;-87
2023/09/12 19:26:14;;;;;;;;;;;;;;;22.58;92.92;99820.48;178324;1260;43767;-87
2023/09/12 19:30:17;;;;;;;;;;;;;;;22.41;93.04;99819.55;178298;1261;45749;-87
2023/09/12 19:34:21;;;;;;;;;;;;;;;22.24;94.00;99816.28;178566;1260;45776;-88
2023/09/12 19:38:24;;;;;;;;;;;;;;;22.10;94.78;99820.04;178014;1263;57013;-87
2023/09/12 19:42:27;;;;;;;;;;;;;;;22.02;99.10;99821.39;178128;1263;45821;-88
2023/09/12 19:46:31;;;;;;;;;;;;;;;21.99;100.00;99817.65;178358;1264;46000;-87
2023/09/12 19:50:35;;;;;;;;;;;;;;;22.01;100.00;99814.61;179026;1262;44284;-87
2023/09/12 19:54:41;;;;;;;;;;;;;;;22.08;100.00;99813.59;178815;1266;45778;-87
2023/09/12 19:58:44;;;;;;;;;;;;;;;22.15;100.00;99813.64;179016;1262;57175;-87
2023/09/12 20:02:49;;;;;;;;;;;;;;;22.19;100.00;99816.01;178506;1262;45932;-87
2023/09/12 20:06:53;;;;;;;;;;;;;;;22.21;100.00;99815.51;178364;1264;46248;-87
2023/09/12 20:10:57;;;;;;;;;;;;;;;22.24;100.00;99820.16;178055;1263;46038;-87
2023/09/12 20:15:00;;;;;;;;;;;;;;;22.28;100.00;99817.92;177944;1264;46003;-87
2023/09/12 20:19:05;;;;;;;;;;;;;;;22.35;99.62;99819.20;178017;1262;57781;-87
2023/09/12 20:23:09;;;;;;;;;;;;;;;22.42;98.76;99823.08;178296;1262;45800;-88
2023/09/12 20:27:12;;;;;;;;;;;;;;;22.44;97.90;99821.65;178287;1262;45750;-87
2023/09/12 20:31:17;;;;;;;;;;;;;;;22.43;97.45;99822.88;178169;1262;45715;-87
2023/09/12 20:35:25;;;;;;;;;;;;;;;22.35;96.95;99820.40;178225;1260;45876;-87
2023/09/12 20:39:29;;;;;;;;;;;;;;;22.24;98.52;99819.20;178093;1260;59070;-87
2023/09/12 20:43:33;;;;;;;;;;;;;;;22.14;99.49;99817.52;178339;1262;45828;-87
2023/09/12 20:47:36;;;;;;;;;;;;;;;22.08;100.00;99819.00;177881;1262;44603;-87
2023/09/12 20:51:42;;;;;;;;;;;;;;;22.03;100.00;99824.93;178174;1262;45735;-87
2023/09/12 20:55:46;;;;;;;;;;;;;;;22.03;100.00;99823.73;178318;1261;45812;-87
2023/09/12 20:59:49;;;;;;;;;;;;;;;22.05;100.00;99827.55;178043;1262;58033;-87
2023/09/12 21:04:03;;;;;;;;;;;;;;;22.05;100.00;99824.27;179363;1260;45909;-89
2023/09/12 21:08:26;;;;;;;;;;;;;;;22.03;100.00;99825.52;180493;1258;44553;-90
2023/09/12 21:12:30;;;;;;;;;;;;;;;22.00;100.00;99829.85;179895;1260;44605;-89
2023/09/12 21:16:36;;;;;;;;;;;;;;;21.99;100.00;99826.02;179886;1260;50335;-89
2023/09/12 21:20:41;;;;;;;;;;;;;;;21.98;100.00;99825.65;179836;1260;58803;-91
2023/09/12 21:24:48;;;;;;;;;;;;;;;21.89;100.00;99824.14;179955;1260;44291;-90
2023/09/12 21:28:53;;;;;;;;;;;;;;;21.70;100.00;99823.09;179844;1260;44244;-90
2023/09/12 21:32:58;;;;;;;;;;;;;;;21.59;100.00;99820.23;180060;1260;43658;-89
2023/09/12 21:37:23;;;;;;;;;;;;;;;21.53;100.00;99815.63;179925;1260;43834;-90
2023/09/12 21:41:38;;;;;;;;;;;;;;;21.45;100.00;99808.94;180123;1261;59604;-90
2023/09/12 21:45:43;;;;;;;;;;;;;;;21.42;100.00;99811.56;179857;1260;46016;-90
2023/09/12 21:49:47;;;;;;;;;;;;;;;21.42;100.00;99813.18;179825;1260;43939;-88
2023/09/12 21:53:51;;;;;;;;;;;;;;;21.38;100.00;99813.89;179787;1261;45782;-86
2023/09/12 21:57:54;;;;;;;;;;;;;;;21.32;100.00;99811.19;180024;1260;44683;-85
2023/09/12 22:01:57;;;;;;;;;;;;;;;21.26;100.00;99814.39;179746;1260;60568;-85
2023/09/12 22:06:04;;;;;;;;;;;;;;;21.28;100.00;99814.55;179759;1260;45645;-85
2023/09/12 22:10:07;;;;;;;;;;;;;;;21.24;100.00;99810.02;180398;1260;43777;-87
2023/09/12 22:14:10;;;;;;;;;;;;;;;21.08;100.00;99804.90;179929;1260;44087;-87
2023/09/12 22:18:14;;;;;;;;;;;;;;;20.98;100.00;99799.81;180214;1261;43894;-87
2023/09/12 22:22:17;;;;;;;;;;;;;;;20.86;100.00;99801.14;179234;1263;58050;-87
2023/09/12 22:26:20;;;;;;;;;;;;;;;20.76;100.00;99804.45;177934;1259;45791;-87
2023/09/12 22:30:23;;;;;;;;;;;;;;;20.71;100.00;99803.81;178340;1260;45785;-86
2023/09/12 22:34:27;;;;;;;;;;;;;;;20.61;100.00;99799.21;177298;1264;45867;-87
2023/09/12 22:38:36;;;;;;;;;;;;;;;20.55;100.00;99803.45;177908;1260;45866;-86
2023/09/12 22:42:39;;;;;;;;;;;;;;;20.49;100.00;99802.09;177374;1261;57727;-86
2023/09/12 22:46:42;;;;;;;;;;;;;;;20.43;100.00;99807.67;177198;1261;46366;-87
2023/09/12 22:50:47;;;;;;;;;;;;;;;20.41;100.00;99808.46;177610;1261;45801;-86